F/V Anna Mamm Mari — FOHD — position and weather

sailwx.info

Track history (hours):
 
Tides and Currents Weather Stations Pressure Air Temp Water Temp Dewpoint Dewpoint Depression Visibility Wind Speed Wind Dir Waves Ship Positions

F/V Anna Mamm Mari

Last reported at 2016-Jun-25 22:30 UTC. Time now 2016-Jun-26 10:09 UTC.
Position N 46°35' W 002°11'.

Length 17 m.

Type: Fishing. MMSI: 228393000.

Date/timePositionNaut miles runAvg speedWind from/ knotsBaromVisibWave heightAir tempDewpointWater temp
2016-Jun-25 22:30N 46°35' W 002°11'9 9.3
2016-Jun-25 21:32N 46°32' W 001°59'8 8.7
2016-Jun-25 20:33N 46°28' W 001°48'2 1.5
2016-Jun-25 19:33N 46°30' W 001°47'0 0.0
2016-Jun-25 18:33N 46°30' W 001°47'0 0.0
2016-Jun-25 17:33N 46°30' W 001°47'2 2.0
2016-Jun-25 16:33N 46°29' W 001°49'9 9.4
2016-Jun-25 15:33N 46°33' W 002°01'54 9.0
2016-Jun-25 09:30N 47°01' W 003°10'2 0.3
2016-Jun-25 02:30N 46°59' W 003°10'1 0.6
2016-Jun-25 00:15N 46°59' W 003°12'0 0.0
2016-Jun-24 22:24N 46°59' W 003°12'5 0.5
2016-Jun-24 12:25N 47°02' W 003°18'5 1.1
2016-Jun-24 07:33N 46°56' W 003°16'2 0.4
2016-Jun-24 03:19N 46°58' W 003°14'0 0.0
2016-Jun-24 02:33N 46°58' W 003°14'0 0.0
2016-Jun-24 01:23N 46°58' W 003°14'0 0.0
2016-Jun-24 00:30N 46°58' W 003°14'0 0.1
2016-Jun-23 23:33N 46°58' W 003°14'0 0.0
2016-Jun-23 22:32N 46°58' W 003°14'3 0.4
2016-Jun-23 14:12N 46°59' W 003°10'2 2.3
2016-Jun-23 13:31N 46°58' W 003°09'1 1.4
2016-Jun-23 12:33N 46°59' W 003°11'4 1.4
2016-Jun-23 09:30N 47°01' W 003°16'4 0.9
2016-Jun-23 05:15N 46°59' W 003°11'1 1.2
2016-Jun-23 04:30N 46°58' W 003°11'1 1.1
2016-Jun-23 03:18N 46°59' W 003°12'1 0.3
2016-Jun-23 00:33N 46°60' W 003°12'0 0.1
2016-Jun-22 23:33N 46°60' W 003°12'0 0.1
2016-Jun-22 22:33N 46°60' W 003°12'0 0.1
2016-Jun-22 21:33N 46°60' W 003°12'0 0.0
2016-Jun-22 20:33N 46°60' W 003°12'0 0.0
2016-Jun-22 19:33N 46°60' W 003°12'0 0.1
2016-Jun-22 18:33N 46°59' W 003°12'40 5.3
2016-Jun-22 11:07N 46°41' W 002°21'8 9.6
2016-Jun-22 10:20N 46°37' W 002°11'7 9.7
2016-Jun-22 09:33N 46°33' W 002°02'10 9.7
2016-Jun-22 08:33N 46°29' W 001°49'2 1.8
2016-Jun-22 07:33N 46°30' W 001°47'0 0.0
2016-Jun-22 06:33N 46°30' W 001°47'0 0.0
2016-Jun-22 05:33N 46°30' W 001°47'0 0.0
2016-Jun-22 04:33N 46°30' W 001°47'0 0.0
2016-Jun-22 03:33N 46°30' W 001°47'0 0.0
2016-Jun-22 02:33N 46°30' W 001°47'0 0.0
2016-Jun-22 01:33N 46°30' W 001°47'0 0.0
2016-Jun-22 00:33N 46°30' W 001°47'0 0.0
2016-Jun-21 23:33N 46°30' W 001°47'0 0.0
2016-Jun-21 22:33N 46°30' W 001°47'0 0.0
2016-Jun-21 21:33N 46°30' W 001°47'0 0.0
2016-Jun-21 20:33N 46°30' W 001°47'0 0.2
2016-Jun-21 19:33N 46°30' W 001°47'4 3.7
2016-Jun-21 18:33N 46°29' W 001°52'9 8.7
2016-Jun-21 17:33N 46°33' W 002°03'56 9.0
2016-Jun-21 11:18N 47°00' W 003°16'0 0.3
2016-Jun-21 10:06N 47°00' W 003°16'1 1.8
2016-Jun-21 09:27N 47°02' W 003°16'5 0.2
2016-Jun-20 10:22N 46°57' W 003°15'2 1.6
2016-Jun-20 09:19N 46°59' W 003°16'5 2.6
2016-Jun-20 07:33N 46°58' W 003°09'2 1.7
2016-Jun-20 06:28N 46°58' W 003°12'2 0.2
2016-Jun-19 20:33N 46°60' W 003°14'2 0.4
2016-Jun-19 13:30N 47°01' W 003°17'1 0.4
2016-Jun-19 11:30N 47°02' W 003°16'1 0.5
2016-Jun-19 10:21N 47°02' W 003°17'1 0.8
2016-Jun-19 09:33N 47°02' W 003°17'7 3.3
2016-Jun-19 07:21N 46°56' W 003°13'4 3.5
2016-Jun-19 06:06N 46°60' W 003°15'1 2.2
2016-Jun-19 05:33N 46°59' W 003°14'1 1.2
2016-Jun-19 04:18N 46°60' W 003°13'1 0.7
2016-Jun-19 03:33N 46°59' W 003°12'0 0.1
2016-Jun-19 02:30N 46°60' W 003°12'0 0.0
2016-Jun-18 21:24N 46°60' W 003°12'0 0.0
2016-Jun-18 20:33N 46°60' W 003°12'0 0.1
2016-Jun-18 19:33N 46°60' W 003°12'0 0.0
2016-Jun-18 18:30N 46°59' W 003°12'3 0.5
2016-Jun-18 12:24N 47°01' W 003°16'2 2.2
2016-Jun-18 11:30N 47°03' W 003°16'58 5.3
2016-Jun-18 00:33N 46°33' W 002°03'8 8.3
2016-Jun-17 23:33N 46°29' W 001°53'3 3.5
2016-Jun-17 22:33N 46°30' W 001°48'0 0.0
2016-Jun-17 21:33N 46°30' W 001°48'0 0.0
2016-Jun-17 20:33N 46°30' W 001°48'0 0.0
2016-Jun-17 19:33N 46°30' W 001°48'0 0.2
2016-Jun-17 18:33N 46°30' W 001°47'0 0.0
2016-Jun-17 17:33N 46°30' W 001°47'6 5.9
2016-Jun-17 16:33N 46°31' W 001°56'9 9.0
2016-Jun-17 15:33N 46°35' W 002°07'52 8.7
2016-Jun-17 09:33N 46°59' W 003°15'5 3.5
2016-Jun-17 08:12N 47°03' W 003°18'6 1.0
2016-Jun-17 02:33N 46°58' W 003°14'3 0.2
2016-Jun-16 12:18N 47°01' W 003°16'1 1.6
2016-Jun-16 11:30N 47°02' W 003°16'1 1.3
2016-Jun-16 10:24N 47°04' W 003°17'5 0.5
2016-Jun-15 23:27N 46°60' W 003°11'0 0.2
2016-Jun-15 22:33N 46°60' W 003°11'  
Track history (hours):
 
Tides and Currents Weather Stations Pressure Air Temp Water Temp Dewpoint Dewpoint Depression Visibility Wind Speed Wind Dir Waves Ship Positions

F/V Anna Mamm Mari

Last reported at 2016-Jun-25 22:30 UTC. Time now 2016-Jun-26 10:09 UTC.
Position N 46°35' W 002°11'.

Length 17 m.

Type: Fishing. MMSI: 228393000.

Date/timePositionNaut miles runAvg speedWind from/ knotsBaromVisibWave heightAir tempDewpointWater temp
2016-Jun-25 22:30N 46°35' W 002°11'9 9.3
2016-Jun-25 21:32N 46°32' W 001°59'8 8.7
2016-Jun-25 20:33N 46°28' W 001°48'2 1.5
2016-Jun-25 19:33N 46°30' W 001°47'0 0.0
2016-Jun-25 18:33N 46°30' W 001°47'0 0.0
2016-Jun-25 17:33N 46°30' W 001°47'2 2.0
2016-Jun-25 16:33N 46°29' W 001°49'9 9.4
2016-Jun-25 15:33N 46°33' W 002°01'54 9.0
2016-Jun-25 09:30N 47°01' W 003°10'2 0.3
2016-Jun-25 02:30N 46°59' W 003°10'1 0.6
2016-Jun-25 00:15N 46°59' W 003°12'0 0.0
2016-Jun-24 22:24N 46°59' W 003°12'5 0.5
2016-Jun-24 12:25N 47°02' W 003°18'5 1.1
2016-Jun-24 07:33N 46°56' W 003°16'2 0.4
2016-Jun-24 03:19N 46°58' W 003°14'0 0.0
2016-Jun-24 02:33N 46°58' W 003°14'0 0.0
2016-Jun-24 01:23N 46°58' W 003°14'0 0.0
2016-Jun-24 00:30N 46°58' W 003°14'0 0.1
2016-Jun-23 23:33N 46°58' W 003°14'0 0.0
2016-Jun-23 22:32N 46°58' W 003°14'3 0.4
2016-Jun-23 14:12N 46°59' W 003°10'2 2.3
2016-Jun-23 13:31N 46°58' W 003°09'1 1.4
2016-Jun-23 12:33N 46°59' W 003°11'4 1.4
2016-Jun-23 09:30N 47°01' W 003°16'4 0.9
2016-Jun-23 05:15N 46°59' W 003°11'1 1.2
2016-Jun-23 04:30N 46°58' W 003°11'1 1.1
2016-Jun-23 03:18N 46°59' W 003°12'1 0.3
2016-Jun-23 00:33N 46°60' W 003°12'0 0.1
2016-Jun-22 23:33N 46°60' W 003°12'0 0.1
2016-Jun-22 22:33N 46°60' W 003°12'0 0.1
2016-Jun-22 21:33N 46°60' W 003°12'0 0.0
2016-Jun-22 20:33N 46°60' W 003°12'0 0.0
2016-Jun-22 19:33N 46°60' W 003°12'0 0.1
2016-Jun-22 18:33N 46°59' W 003°12'40 5.3
2016-Jun-22 11:07N 46°41' W 002°21'8 9.6
2016-Jun-22 10:20N 46°37' W 002°11'7 9.7
2016-Jun-22 09:33N 46°33' W 002°02'10 9.7
2016-Jun-22 08:33N 46°29' W 001°49'2 1.8
2016-Jun-22 07:33N 46°30' W 001°47'0 0.0
2016-Jun-22 06:33N 46°30' W 001°47'0 0.0
2016-Jun-22 05:33N 46°30' W 001°47'0 0.0
2016-Jun-22 04:33N 46°30' W 001°47'0 0.0
2016-Jun-22 03:33N 46°30' W 001°47'0 0.0
2016-Jun-22 02:33N 46°30' W 001°47'0 0.0
2016-Jun-22 01:33N 46°30' W 001°47'0 0.0
2016-Jun-22 00:33N 46°30' W 001°47'0 0.0
2016-Jun-21 23:33N 46°30' W 001°47'0 0.0
2016-Jun-21 22:33N 46°30' W 001°47'0 0.0
2016-Jun-21 21:33N 46°30' W 001°47'0 0.0
2016-Jun-21 20:33N 46°30' W 001°47'0 0.2
2016-Jun-21 19:33N 46°30' W 001°47'4 3.7
2016-Jun-21 18:33N 46°29' W 001°52'9 8.7
2016-Jun-21 17:33N 46°33' W 002°03'56 9.0
2016-Jun-21 11:18N 47°00' W 003°16'0 0.3
2016-Jun-21 10:06N 47°00' W 003°16'1 1.8
2016-Jun-21 09:27N 47°02' W 003°16'5 0.2
2016-Jun-20 10:22N 46°57' W 003°15'2 1.6
2016-Jun-20 09:19N 46°59' W 003°16'5 2.6
2016-Jun-20 07:33N 46°58' W 003°09'2 1.7
2016-Jun-20 06:28N 46°58' W 003°12'2 0.2
2016-Jun-19 20:33N 46°60' W 003°14'2 0.4
2016-Jun-19 13:30N 47°01' W 003°17'1 0.4
2016-Jun-19 11:30N 47°02' W 003°16'1 0.5
2016-Jun-19 10:21N 47°02' W 003°17'1 0.8
2016-Jun-19 09:33N 47°02' W 003°17'7 3.3
2016-Jun-19 07:21N 46°56' W 003°13'4 3.5
2016-Jun-19 06:06N 46°60' W 003°15'1 2.2
2016-Jun-19 05:33N 46°59' W 003°14'1 1.2
2016-Jun-19 04:18N 46°60' W 003°13'1 0.7
2016-Jun-19 03:33N 46°59' W 003°12'0 0.1
2016-Jun-19 02:30N 46°60' W 003°12'0 0.0
2016-Jun-18 21:24N 46°60' W 003°12'0 0.0
2016-Jun-18 20:33N 46°60' W 003°12'0 0.1
2016-Jun-18 19:33N 46°60' W 003°12'0 0.0
2016-Jun-18 18:30N 46°59' W 003°12'3 0.5
2016-Jun-18 12:24N 47°01' W 003°16'2 2.2
2016-Jun-18 11:30N 47°03' W 003°16'58 5.3
2016-Jun-18 00:33N 46°33' W 002°03'8 8.3
2016-Jun-17 23:33N 46°29' W 001°53'3 3.5
2016-Jun-17 22:33N 46°30' W 001°48'0 0.0
2016-Jun-17 21:33N 46°30' W 001°48'0 0.0
2016-Jun-17 20:33N 46°30' W 001°48'0 0.0
2016-Jun-17 19:33N 46°30' W 001°48'0 0.2
2016-Jun-17 18:33N 46°30' W 001°47'0 0.0
2016-Jun-17 17:33N 46°30' W 001°47'6 5.9
2016-Jun-17 16:33N 46°31' W 001°56'9 9.0
2016-Jun-17 15:33N 46°35' W 002°07'52 8.7
2016-Jun-17 09:33N 46°59' W 003°15'5 3.5
2016-Jun-17 08:12N 47°03' W 003°18'6 1.0
2016-Jun-17 02:33N 46°58' W 003°14'3 0.2
2016-Jun-16 12:18N 47°01' W 003°16'1 1.6
2016-Jun-16 11:30N 47°02' W 003°16'1 1.3
2016-Jun-16 10:24N 47°04' W 003°17'5 0.5
2016-Jun-15 23:27N 46°60' W 003°11'0 0.2
2016-Jun-15 22:33N 46°60' W 003°11'  

Dump ship's entire track history